sensor_id;sensor_type;location;lat;lon;timestamp;pressure;altitude;pressure_sealevel;temperature;humidity
79780;BME280;69258;52.050;10.334;2023-04-24T00:07:31;98242.28;;;21.73;48.13
79780;BME280;69258;52.050;10.334;2023-04-24T00:22:33;98255.16;;;21.71;48.13
79780;BME280;69258;52.050;10.334;2023-04-24T00:37:35;98252.97;;;21.68;48.49
79780;BME280;69258;52.050;10.334;2023-04-24T00:52:37;98256.94;;;21.65;48.52
79780;BME280;69258;52.050;10.334;2023-04-24T01:07:40;98231.44;;;21.63;48.19
79780;BME280;69258;52.050;10.334;2023-04-24T01:22:42;98234.63;;;21.59;48.42
79780;BME280;69258;52.050;10.334;2023-04-24T01:37:44;98232.97;;;21.58;48.17
79780;BME280;69258;52.050;10.334;2023-04-24T01:52:46;98252.47;;;21.54;48.21
79780;BME280;69258;52.050;10.334;2023-04-24T02:07:48;98235.03;;;21.51;48.55
79780;BME280;69258;52.050;10.334;2023-04-24T02:22:50;98227.22;;;21.50;47.85
79780;BME280;69258;52.050;10.334;2023-04-24T02:37:52;98219.69;;;21.47;48.10
79780;BME280;69258;52.050;10.334;2023-04-24T02:52:53;98206.91;;;21.54;47.76
79780;BME280;69258;52.050;10.334;2023-04-24T03:07:55;98207.81;;;21.59;48.16
79780;BME280;69258;52.050;10.334;2023-04-24T03:22:57;98201.38;;;21.60;47.85
79780;BME280;69258;52.050;10.334;2023-04-24T03:37:59;98194.16;;;21.61;47.61
79780;BME280;69258;52.050;10.334;2023-04-24T03:53:01;98181.31;;;21.63;47.60
79780;BME280;69258;52.050;10.334;2023-04-24T04:08:02;98174.88;;;21.64;47.48
79780;BME280;69258;52.050;10.334;2023-04-24T04:23:04;98177.31;;;21.66;47.48
79780;BME280;69258;52.050;10.334;2023-04-24T04:38:06;98178.69;;;21.68;47.54
79780;BME280;69258;52.050;10.334;2023-04-24T04:53:08;98191.03;;;21.69;47.48
79780;BME280;69258;52.050;10.334;2023-04-24T05:08:09;98201.25;;;21.72;48.11
79780;BME280;69258;52.050;10.334;2023-04-24T05:23:27;98192.75;;;21.75;48.13
79780;BME280;69258;52.050;10.334;2023-04-24T05:38:28;98185.75;;;21.74;48.65
79780;BME280;69258;52.050;10.334;2023-04-24T05:53:30;98195.09;;;21.72;48.55
79780;BME280;69258;52.050;10.334;2023-04-24T06:08:32;98218.91;;;21.68;48.29
79780;BME280;69258;52.050;10.334;2023-04-24T06:23:34;98225.34;;;21.67;48.10
79780;BME280;69258;52.050;10.334;2023-04-24T06:38:36;98207.84;;;21.65;47.76
79780;BME280;69258;52.050;10.334;2023-04-24T06:53:37;98218.59;;;21.65;48.25
79780;BME280;69258;52.050;10.334;2023-04-24T07:08:39;98223.41;;;21.63;48.08
79780;BME280;69258;52.050;10.334;2023-04-24T07:23:41;98275.06;;;21.58;48.12
79780;BME280;69258;52.050;10.334;2023-04-24T07:38:43;98283.09;;;21.58;48.13
79780;BME280;69258;52.050;10.334;2023-04-24T07:53:44;98288.47;;;21.58;48.04
79780;BME280;69258;52.050;10.334;2023-04-24T08:08:46;98290.31;;;21.57;47.80
79780;BME280;69258;52.050;10.334;2023-04-24T08:23:48;98278.78;;;21.57;47.60
79780;BME280;69258;52.050;10.334;2023-04-24T08:38:50;98281.22;;;21.58;47.95
79780;BME280;69258;52.050;10.334;2023-04-24T08:53:54;98295.19;;;21.60;48.29
79780;BME280;69258;52.050;10.334;2023-04-24T09:08:57;98287.72;;;21.63;47.77
79780;BME280;69258;52.050;10.334;2023-04-24T09:24:03;98310.22;;;21.61;47.95
79780;BME280;69258;52.050;10.334;2023-04-24T09:39:07;98300.63;;;21.66;47.69
79780;BME280;69258;52.050;10.334;2023-04-24T09:54:17;98315.72;;;21.72;47.61
79780;BME280;69258;52.050;10.334;2023-04-24T10:09:20;98313.63;;;21.74;48.03
79780;BME280;69258;52.050;10.334;2023-04-24T10:24:23;98318.28;;;21.78;47.92
79780;BME280;69258;52.050;10.334;2023-04-24T10:39:25;98339.78;;;21.83;47.53
79780;BME280;69258;52.050;10.334;2023-04-24T10:54:34;98324.50;;;21.84;47.38
79780;BME280;69258;52.050;10.334;2023-04-24T11:09:37;98343.03;;;21.85;47.24
79780;BME280;69258;52.050;10.334;2023-04-24T11:24:49;98340.69;;;21.89;47.31
79780;BME280;69258;52.050;10.334;2023-04-24T11:39:52;98351.19;;;21.90;47.04
79780;BME280;69258;52.050;10.334;2023-04-24T11:54:54;98343.47;;;21.94;47.30
79780;BME280;69258;52.050;10.334;2023-04-24T12:09:57;98344.28;;;21.94;47.15
79780;BME280;69258;52.050;10.334;2023-04-24T12:25:01;98343.22;;;21.95;47.32
79780;BME280;69258;52.050;10.334;2023-04-24T12:40:09;98372.72;;;21.95;47.29
79780;BME280;69258;52.050;10.334;2023-04-24T12:55:11;98393.94;;;21.97;47.42
79780;BME280;69258;52.050;10.334;2023-04-24T13:10:13;98407.34;;;21.97;47.27
79780;BME280;69258;52.050;10.334;2023-04-24T13:25:15;98430.91;;;21.95;47.46
79780;BME280;69258;52.050;10.334;2023-04-24T13:40:17;98455.31;;;21.93;47.20
79780;BME280;69258;52.050;10.334;2023-04-24T13:55:18;98473.28;;;21.93;47.24
79780;BME280;69258;52.050;10.334;2023-04-24T14:10:20;98491.97;;;21.76;45.97
79780;BME280;69258;52.050;10.334;2023-04-24T14:25:22;98515.50;;;21.86;46.27
79780;BME280;69258;52.050;10.334;2023-04-24T14:40:24;98548.50;;;21.86;46.38
79780;BME280;69258;52.050;10.334;2023-04-24T14:55:28;98565.97;;;21.89;46.56
79780;BME280;69258;52.050;10.334;2023-04-24T15:10:30;98605.59;;;21.87;46.24
79780;BME280;69258;52.050;10.334;2023-04-24T15:25:32;98609.59;;;21.84;46.75
79780;BME280;69258;52.050;10.334;2023-04-24T15:40:33;98629.41;;;21.83;46.88
79780;BME280;69258;52.050;10.334;2023-04-24T15:55:36;98633.16;;;21.82;46.98
79780;BME280;69258;52.050;10.334;2023-04-24T16:10:37;98645.97;;;21.80;46.78
79780;BME280;69258;52.050;10.334;2023-04-24T16:25:39;98658.81;;;21.78;47.18
79780;BME280;69258;52.050;10.334;2023-04-24T16:40:43;98661.72;;;21.77;47.17
79780;BME280;69258;52.050;10.334;2023-04-24T16:55:45;98677.00;;;21.76;46.98
79780;BME280;69258;52.050;10.334;2023-04-24T17:10:50;98680.16;;;21.73;47.20
79780;BME280;69258;52.050;10.334;2023-04-24T17:25:52;98685.75;;;21.72;46.92
79780;BME280;69258;52.050;10.334;2023-04-24T17:40:55;98695.91;;;21.70;47.24
79780;BME280;69258;52.050;10.334;2023-04-24T17:55:57;98709.53;;;21.68;46.86
79780;BME280;69258;52.050;10.334;2023-04-24T18:10:58;98717.00;;;21.66;47.23
79780;BME280;69258;52.050;10.334;2023-04-24T18:26:00;98729.59;;;21.66;47.43
79780;BME280;69258;52.050;10.334;2023-04-24T18:41:03;98750.47;;;21.64;47.91
79780;BME280;69258;52.050;10.334;2023-04-24T18:56:05;98762.22;;;21.63;47.08
79780;BME280;69258;52.050;10.334;2023-04-24T19:11:07;98790.34;;;21.60;47.74
79780;BME280;69258;52.050;10.334;2023-04-24T19:26:09;98798.59;;;21.58;47.67
79780;BME280;69258;52.050;10.334;2023-04-24T19:41:12;98812.47;;;21.55;47.62
79780;BME280;69258;52.050;10.334;2023-04-24T19:56:14;98807.44;;;21.47;47.57
79780;BME280;69258;52.050;10.334;2023-04-24T20:11:16;98801.38;;;21.40;47.70
79780;BME280;69258;52.050;10.334;2023-04-24T20:26:18;98797.53;;;21.36;47.44
79780;BME280;69258;52.050;10.334;2023-04-24T20:41:20;98799.03;;;21.32;47.33
79780;BME280;69258;52.050;10.334;2023-04-24T20:56:22;98797.03;;;21.28;48.29
79780;BME280;69258;52.050;10.334;2023-04-24T21:11:23;98801.47;;;21.22;48.01
79780;BME280;69258;52.050;10.334;2023-04-24T21:26:25;98778.50;;;21.15;47.98
79780;BME280;69258;52.050;10.334;2023-04-24T21:41:27;98782.88;;;21.09;47.96
79780;BME280;69258;52.050;10.334;2023-04-24T21:56:29;98782.50;;;21.05;47.73
79780;BME280;69258;52.050;10.334;2023-04-24T22:11:30;98775.16;;;21.01;47.92
79780;BME280;69258;52.050;10.334;2023-04-24T22:26:32;98762.69;;;20.95;47.67
79780;BME280;69258;52.050;10.334;2023-04-24T22:41:34;98761.28;;;20.92;47.61
79780;BME280;69258;52.050;10.334;2023-04-24T22:56:36;98756.63;;;20.88;47.63
79780;BME280;69258;52.050;10.334;2023-04-24T23:11:37;98765.34;;;20.83;47.89
79780;BME280;69258;52.050;10.334;2023-04-24T23:26:39;98754.94;;;20.75;47.74
79780;BME280;69258;52.050;10.334;2023-04-24T23:41:41;98757.25;;;20.72;47.89
79780;BME280;69258;52.050;10.334;2023-04-24T23:56:43;98755.88;;;20.69;47.41
